sensor_id;sensor_type;location;lat;lon;timestamp;P1;durP1;ratioP1;P2;durP2;ratioP2
75912;SDS011;64592;52.168;21.040;2023-04-03T00:03:50;3.08;;;1.83;;
75912;SDS011;64592;52.168;21.040;2023-04-03T00:08:52;2.40;;;1.40;;
75912;SDS011;64592;52.168;21.040;2023-04-03T00:13:54;4.95;;;1.90;;
75912;SDS011;64592;52.168;21.040;2023-04-03T00:18:57;3.78;;;1.50;;
75912;SDS011;64592;52.168;21.040;2023-04-03T00:23:59;4.65;;;1.92;;
75912;SDS011;64592;52.168;21.040;2023-04-03T00:29:00;3.40;;;2.35;;
75912;SDS011;64592;52.168;21.040;2023-04-03T00:34:03;5.72;;;1.70;;
75912;SDS011;64592;52.168;21.040;2023-04-03T00:39:05;6.10;;;1.40;;
75912;SDS011;64592;52.168;21.040;2023-04-03T00:44:20;3.40;;;1.70;;
75912;SDS011;64592;52.168;21.040;2023-04-03T00:49:24;3.90;;;1.40;;
75912;SDS011;64592;52.168;21.040;2023-04-03T00:54:27;2.85;;;1.55;;
75912;SDS011;64592;52.168;21.040;2023-04-03T00:59:30;3.67;;;1.45;;
75912;SDS011;64592;52.168;21.040;2023-04-03T01:04:36;1.95;;;1.20;;
75912;SDS011;64592;52.168;21.040;2023-04-03T01:09:39;2.28;;;1.52;;
75912;SDS011;64592;52.168;21.040;2023-04-03T01:14:42;3.72;;;1.85;;
75912;SDS011;64592;52.168;21.040;2023-04-03T01:19:45;2.35;;;1.52;;
75912;SDS011;64592;52.168;21.040;2023-04-03T01:24:58;3.10;;;1.50;;
75912;SDS011;64592;52.168;21.040;2023-04-03T01:30:00;1.88;;;1.05;;
75912;SDS011;64592;52.168;21.040;2023-04-03T01:35:06;1.88;;;1.20;;
75912;SDS011;64592;52.168;21.040;2023-04-03T01:40:09;1.88;;;1.38;;
75912;SDS011;64592;52.168;21.040;2023-04-03T01:45:11;2.05;;;1.05;;
75912;SDS011;64592;52.168;21.040;2023-04-03T01:50:14;1.55;;;1.23;;
75912;SDS011;64592;52.168;21.040;2023-04-03T01:55:16;3.70;;;1.33;;
75912;SDS011;64592;52.168;21.040;2023-04-03T02:00:18;2.55;;;1.55;;
75912;SDS011;64592;52.168;21.040;2023-04-03T02:05:21;3.30;;;1.52;;
75912;SDS011;64592;52.168;21.040;2023-04-03T02:10:23;4.07;;;1.48;;
75912;SDS011;64592;52.168;21.040;2023-04-03T02:15:25;3.08;;;1.60;;
75912;SDS011;64592;52.168;21.040;2023-04-03T02:20:28;4.90;;;1.23;;
75912;SDS011;64592;52.168;21.040;2023-04-03T02:25:30;3.55;;;1.40;;
75912;SDS011;64592;52.168;21.040;2023-04-03T02:30:32;1.65;;;0.95;;
75912;SDS011;64592;52.168;21.040;2023-04-03T02:35:35;2.88;;;1.42;;
75912;SDS011;64592;52.168;21.040;2023-04-03T02:40:37;2.40;;;1.48;;
75912;SDS011;64592;52.168;21.040;2023-04-03T02:45:39;2.10;;;1.52;;
75912;SDS011;64592;52.168;21.040;2023-04-03T02:50:42;2.58;;;1.20;;
75912;SDS011;64592;52.168;21.040;2023-04-03T02:55:44;2.83;;;0.93;;
75912;SDS011;64592;52.168;21.040;2023-04-03T03:00:46;3.22;;;1.30;;
75912;SDS011;64592;52.168;21.040;2023-04-03T03:05:49;2.25;;;1.35;;
75912;SDS011;64592;52.168;21.040;2023-04-03T03:10:51;4.43;;;1.45;;
75912;SDS011;64592;52.168;21.040;2023-04-03T03:15:53;6.63;;;1.50;;
75912;SDS011;64592;52.168;21.040;2023-04-03T03:20:57;2.78;;;1.55;;
75912;SDS011;64592;52.168;21.040;2023-04-03T03:26:01;1.50;;;1.02;;
75912;SDS011;64592;52.168;21.040;2023-04-03T03:31:04;2.75;;;1.23;;
75912;SDS011;64592;52.168;21.040;2023-04-03T03:36:07;3.83;;;0.98;;
75912;SDS011;64592;52.168;21.040;2023-04-03T03:41:09;7.68;;;1.90;;
75912;SDS011;64592;52.168;21.040;2023-04-03T03:46:11;2.00;;;1.15;;
75912;SDS011;64592;52.168;21.040;2023-04-03T03:51:14;2.95;;;1.20;;
75912;SDS011;64592;52.168;21.040;2023-04-03T03:56:16;4.15;;;1.00;;
75912;SDS011;64592;52.168;21.040;2023-04-03T04:01:18;3.15;;;1.17;;
75912;SDS011;64592;52.168;21.040;2023-04-03T04:06:21;1.60;;;1.02;;
75912;SDS011;64592;52.168;21.040;2023-04-03T04:11:23;3.55;;;1.40;;
75912;SDS011;64592;52.168;21.040;2023-04-03T04:16:25;3.13;;;1.50;;
75912;SDS011;64592;52.168;21.040;2023-04-03T04:21:28;2.50;;;1.33;;
75912;SDS011;64592;52.168;21.040;2023-04-03T04:26:30;2.63;;;1.30;;
75912;SDS011;64592;52.168;21.040;2023-04-03T04:31:31;5.28;;;1.15;;
75912;SDS011;64592;52.168;21.040;2023-04-03T04:36:34;2.50;;;1.40;;
75912;SDS011;64592;52.168;21.040;2023-04-03T04:41:36;3.25;;;1.98;;
75912;SDS011;64592;52.168;21.040;2023-04-03T04:46:38;3.72;;;1.50;;
75912;SDS011;64592;52.168;21.040;2023-04-03T04:51:41;4.57;;;1.83;;
75912;SDS011;64592;52.168;21.040;2023-04-03T04:56:42;3.92;;;1.35;;
75912;SDS011;64592;52.168;21.040;2023-04-03T05:01:44;3.00;;;1.52;;
75912;SDS011;64592;52.168;21.040;2023-04-03T05:06:47;2.78;;;1.70;;
75912;SDS011;64592;52.168;21.040;2023-04-03T05:11:49;4.15;;;2.17;;
75912;SDS011;64592;52.168;21.040;2023-04-03T05:16:51;4.13;;;1.70;;
75912;SDS011;64592;52.168;21.040;2023-04-03T05:21:55;3.80;;;1.88;;
75912;SDS011;64592;52.168;21.040;2023-04-03T05:26:57;1.92;;;1.45;;
75912;SDS011;64592;52.168;21.040;2023-04-03T05:31:58;9.20;;;1.98;;
75912;SDS011;64592;52.168;21.040;2023-04-03T05:37:01;4.38;;;1.80;;
75912;SDS011;64592;52.168;21.040;2023-04-03T05:42:05;4.05;;;1.85;;
75912;SDS011;64592;52.168;21.040;2023-04-03T05:47:06;3.60;;;1.50;;
75912;SDS011;64592;52.168;21.040;2023-04-03T05:52:11;3.28;;;1.48;;
75912;SDS011;64592;52.168;21.040;2023-04-03T05:57:21;4.75;;;1.60;;
75912;SDS011;64592;52.168;21.040;2023-04-03T06:02:24;4.07;;;1.77;;
75912;SDS011;64592;52.168;21.040;2023-04-03T06:07:28;4.57;;;1.67;;
75912;SDS011;64592;52.168;21.040;2023-04-03T06:12:30;2.78;;;1.80;;
75912;SDS011;64592;52.168;21.040;2023-04-03T06:17:31;4.53;;;1.42;;
75912;SDS011;64592;52.168;21.040;2023-04-03T06:22:34;3.63;;;1.80;;
75912;SDS011;64592;52.168;21.040;2023-04-03T06:27:36;3.70;;;2.05;;
75912;SDS011;64592;52.168;21.040;2023-04-03T06:32:38;3.88;;;2.33;;
75912;SDS011;64592;52.168;21.040;2023-04-03T06:37:41;5.43;;;1.77;;
75912;SDS011;64592;52.168;21.040;2023-04-03T06:42:43;3.42;;;1.77;;
75912;SDS011;64592;52.168;21.040;2023-04-03T06:47:45;3.80;;;1.60;;
75912;SDS011;64592;52.168;21.040;2023-04-03T06:52:48;7.57;;;2.17;;
75912;SDS011;64592;52.168;21.040;2023-04-03T06:57:50;3.75;;;1.60;;
75912;SDS011;64592;52.168;21.040;2023-04-03T07:02:52;3.65;;;2.10;;
75912;SDS011;64592;52.168;21.040;2023-04-03T07:07:55;5.88;;;1.52;;
75912;SDS011;64592;52.168;21.040;2023-04-03T07:12:57;4.75;;;2.00;;
75912;SDS011;64592;52.168;21.040;2023-04-03T07:17:58;3.03;;;1.58;;
75912;SDS011;64592;52.168;21.040;2023-04-03T07:23:01;3.22;;;1.83;;
75912;SDS011;64592;52.168;21.040;2023-04-03T07:28:03;2.75;;;1.70;;
75912;SDS011;64592;52.168;21.040;2023-04-03T07:33:05;5.68;;;2.13;;
75912;SDS011;64592;52.168;21.040;2023-04-03T07:38:08;4.35;;;2.00;;
75912;SDS011;64592;52.168;21.040;2023-04-03T07:43:10;6.20;;;2.35;;
75912;SDS011;64592;52.168;21.040;2023-04-03T07:48:12;4.53;;;1.90;;
75912;SDS011;64592;52.168;21.040;2023-04-03T07:53:17;2.95;;;1.90;;
75912;SDS011;64592;52.168;21.040;2023-04-03T07:58:19;5.55;;;2.35;;
75912;SDS011;64592;52.168;21.040;2023-04-03T08:03:21;2.90;;;1.75;;
75912;SDS011;64592;52.168;21.040;2023-04-03T08:08:24;8.13;;;2.20;;
75912;SDS011;64592;52.168;21.040;2023-04-03T08:13:26;3.72;;;1.50;;
75912;SDS011;64592;52.168;21.040;2023-04-03T08:18:28;4.55;;;1.23;;
75912;SDS011;64592;52.168;21.040;2023-04-03T08:23:31;3.45;;;1.58;;
75912;SDS011;64592;52.168;21.040;2023-04-03T08:28:32;2.47;;;1.80;;
75912;SDS011;64592;52.168;21.040;2023-04-03T08:33:34;1.98;;;1.50;;
75912;SDS011;64592;52.168;21.040;2023-04-03T08:38:38;2.72;;;1.60;;
75912;SDS011;64592;52.168;21.040;2023-04-03T08:43:54;2.60;;;1.58;;
75912;SDS011;64592;52.168;21.040;2023-04-03T08:48:59;3.35;;;1.88;;
75912;SDS011;64592;52.168;21.040;2023-04-03T08:54:04;3.80;;;1.60;;
75912;SDS011;64592;52.168;21.040;2023-04-03T08:59:17;3.25;;;1.55;;
75912;SDS011;64592;52.168;21.040;2023-04-03T09:04:26;3.20;;;1.60;;
75912;SDS011;64592;52.168;21.040;2023-04-03T09:09:35;3.75;;;1.58;;
75912;SDS011;64592;52.168;21.040;2023-04-03T09:14:41;2.80;;;1.88;;
75912;SDS011;64592;52.168;21.040;2023-04-03T09:19:53;3.22;;;1.58;;
75912;SDS011;64592;52.168;21.040;2023-04-03T09:25:00;3.10;;;1.90;;
75912;SDS011;64592;52.168;21.040;2023-04-03T09:30:08;2.10;;;1.40;;
75912;SDS011;64592;52.168;21.040;2023-04-03T09:35:17;2.65;;;1.55;;
75912;SDS011;64592;52.168;21.040;2023-04-03T09:40:29;3.40;;;1.40;;
75912;SDS011;64592;52.168;21.040;2023-04-03T09:45:36;3.80;;;1.60;;
75912;SDS011;64592;52.168;21.040;2023-04-03T09:50:38;3.83;;;1.63;;
75912;SDS011;64592;52.168;21.040;2023-04-03T09:55:57;2.97;;;1.75;;
75912;SDS011;64592;52.168;21.040;2023-04-03T10:01:00;2.58;;;1.55;;
75912;SDS011;64592;52.168;21.040;2023-04-03T10:06:03;2.38;;;1.27;;
75912;SDS011;64592;52.168;21.040;2023-04-03T10:11:10;2.70;;;1.42;;
75912;SDS011;64592;52.168;21.040;2023-04-03T10:16:14;3.25;;;1.42;;
75912;SDS011;64592;52.168;21.040;2023-04-03T10:21:24;1.60;;;1.20;;
75912;SDS011;64592;52.168;21.040;2023-04-03T10:26:39;3.63;;;1.60;;
75912;SDS011;64592;52.168;21.040;2023-04-03T10:31:49;2.63;;;1.40;;
75912;SDS011;64592;52.168;21.040;2023-04-03T10:37:00;4.90;;;1.30;;
75912;SDS011;64592;52.168;21.040;2023-04-03T10:42:12;5.55;;;1.73;;
75912;SDS011;64592;52.168;21.040;2023-04-03T10:47:21;3.42;;;2.03;;
75912;SDS011;64592;52.168;21.040;2023-04-03T10:52:28;2.00;;;1.50;;
75912;SDS011;64592;52.168;21.040;2023-04-03T10:57:39;2.60;;;1.35;;
75912;SDS011;64592;52.168;21.040;2023-04-03T11:02:44;3.25;;;1.73;;
75912;SDS011;64592;52.168;21.040;2023-04-03T11:07:52;2.70;;;1.60;;
75912;SDS011;64592;52.168;21.040;2023-04-03T11:12:58;3.22;;;1.70;;
75912;SDS011;64592;52.168;21.040;2023-04-03T11:18:09;4.00;;;1.23;;
75912;SDS011;64592;52.168;21.040;2023-04-03T11:23:15;3.00;;;1.27;;
75912;SDS011;64592;52.168;21.040;2023-04-03T11:28:24;4.53;;;1.60;;
75912;SDS011;64592;52.168;21.040;2023-04-03T11:33:36;2.53;;;1.50;;
75912;SDS011;64592;52.168;21.040;2023-04-03T11:38:46;5.00;;;1.60;;
75912;SDS011;64592;52.168;21.040;2023-04-03T11:43:56;4.13;;;1.73;;
75912;SDS011;64592;52.168;21.040;2023-04-03T11:49:00;4.25;;;1.80;;
75912;SDS011;64592;52.168;21.040;2023-04-03T11:59:45;2.72;;;1.65;;
75912;SDS011;64592;52.168;21.040;2023-04-03T12:04:52;4.25;;;1.98;;
75912;SDS011;64592;52.168;21.040;2023-04-03T12:10:29;4.68;;;1.73;;
75912;SDS011;64592;52.168;21.040;2023-04-03T12:20:54;6.53;;;1.40;;
75912;SDS011;64592;52.168;21.040;2023-04-03T12:26:05;2.40;;;1.55;;
75912;SDS011;64592;52.168;21.040;2023-04-03T12:31:22;3.40;;;1.45;;
75912;SDS011;64592;52.168;21.040;2023-04-03T12:36:28;2.70;;;1.40;;
75912;SDS011;64592;52.168;21.040;2023-04-03T12:41:38;3.20;;;1.45;;
75912;SDS011;64592;52.168;21.040;2023-04-03T12:46:50;3.25;;;1.50;;
75912;SDS011;64592;52.168;21.040;2023-04-03T12:51:58;2.13;;;1.40;;
75912;SDS011;64592;52.168;21.040;2023-04-03T12:57:11;2.55;;;1.27;;
75912;SDS011;64592;52.168;21.040;2023-04-03T13:02:19;1.90;;;1.35;;
75912;SDS011;64592;52.168;21.040;2023-04-03T13:07:26;3.60;;;1.67;;
75912;SDS011;64592;52.168;21.040;2023-04-03T13:12:45;2.95;;;1.40;;
75912;SDS011;64592;52.168;21.040;2023-04-03T13:17:48;2.10;;;1.15;;
75912;SDS011;64592;52.168;21.040;2023-04-03T13:22:58;3.05;;;1.58;;
75912;SDS011;64592;52.168;21.040;2023-04-03T13:28:03;1.65;;;1.25;;
75912;SDS011;64592;52.168;21.040;2023-04-03T13:33:19;2.72;;;1.50;;
75912;SDS011;64592;52.168;21.040;2023-04-03T13:38:25;1.92;;;1.23;;
75912;SDS011;64592;52.168;21.040;2023-04-03T13:43:31;2.60;;;1.25;;
75912;SDS011;64592;52.168;21.040;2023-04-03T13:48:39;1.63;;;1.35;;
75912;SDS011;64592;52.168;21.040;2023-04-03T13:53:46;2.65;;;1.15;;
75912;SDS011;64592;52.168;21.040;2023-04-03T13:58:55;3.03;;;1.67;;
75912;SDS011;64592;52.168;21.040;2023-04-03T14:04:00;4.28;;;1.40;;
75912;SDS011;64592;52.168;21.040;2023-04-03T14:09:12;2.40;;;1.60;;
75912;SDS011;64592;52.168;21.040;2023-04-03T14:14:16;2.13;;;1.40;;
75912;SDS011;64592;52.168;21.040;2023-04-03T14:19:21;1.98;;;1.23;;
75912;SDS011;64592;52.168;21.040;2023-04-03T14:24:26;3.40;;;1.25;;
75912;SDS011;64592;52.168;21.040;2023-04-03T14:29:28;4.15;;;1.70;;
75912;SDS011;64592;52.168;21.040;2023-04-03T14:34:30;5.45;;;1.88;;
75912;SDS011;64592;52.168;21.040;2023-04-03T14:39:33;2.20;;;1.70;;
75912;SDS011;64592;52.168;21.040;2023-04-03T14:44:35;2.60;;;1.48;;
75912;SDS011;64592;52.168;21.040;2023-04-03T14:49:36;2.30;;;1.40;;
75912;SDS011;64592;52.168;21.040;2023-04-03T14:54:40;2.20;;;1.20;;
75912;SDS011;64592;52.168;21.040;2023-04-03T14:59:42;3.38;;;1.17;;
75912;SDS011;64592;52.168;21.040;2023-04-03T15:04:44;3.13;;;1.85;;
75912;SDS011;64592;52.168;21.040;2023-04-03T15:09:47;3.35;;;1.83;;
75912;SDS011;64592;52.168;21.040;2023-04-03T15:14:49;4.00;;;2.03;;
75912;SDS011;64592;52.168;21.040;2023-04-03T15:19:51;3.13;;;1.65;;
75912;SDS011;64592;52.168;21.040;2023-04-03T15:24:54;2.80;;;1.75;;
75912;SDS011;64592;52.168;21.040;2023-04-03T15:29:56;2.83;;;1.55;;
75912;SDS011;64592;52.168;21.040;2023-04-03T15:34:58;2.50;;;1.38;;
75912;SDS011;64592;52.168;21.040;2023-04-03T15:40:04;2.80;;;1.58;;
75912;SDS011;64592;52.168;21.040;2023-04-03T15:45:07;3.25;;;1.77;;
75912;SDS011;64592;52.168;21.040;2023-04-03T15:50:10;2.85;;;1.60;;
75912;SDS011;64592;52.168;21.040;2023-04-03T15:55:13;3.17;;;1.38;;
75912;SDS011;64592;52.168;21.040;2023-04-03T16:00:15;2.90;;;1.50;;
75912;SDS011;64592;52.168;21.040;2023-04-03T16:05:17;2.25;;;1.50;;
75912;SDS011;64592;52.168;21.040;2023-04-03T16:10:21;2.00;;;1.30;;
75912;SDS011;64592;52.168;21.040;2023-04-03T16:15:23;3.17;;;1.52;;
75912;SDS011;64592;52.168;21.040;2023-04-03T16:20:27;2.45;;;1.60;;
75912;SDS011;64592;52.168;21.040;2023-04-03T16:25:30;3.83;;;1.85;;
75912;SDS011;64592;52.168;21.040;2023-04-03T16:30:33;6.45;;;1.63;;
75912;SDS011;64592;52.168;21.040;2023-04-03T16:35:34;3.15;;;1.85;;
75912;SDS011;64592;52.168;21.040;2023-04-03T16:40:37;2.58;;;1.48;;
75912;SDS011;64592;52.168;21.040;2023-04-03T16:45:39;4.22;;;1.70;;
75912;SDS011;64592;52.168;21.040;2023-04-03T16:50:41;3.63;;;1.67;;
75912;SDS011;64592;52.168;21.040;2023-04-03T16:55:44;2.20;;;1.52;;
75912;SDS011;64592;52.168;21.040;2023-04-03T17:00:46;3.35;;;2.00;;
75912;SDS011;64592;52.168;21.040;2023-04-03T17:05:48;5.07;;;2.00;;
75912;SDS011;64592;52.168;21.040;2023-04-03T17:10:51;3.85;;;1.77;;
75912;SDS011;64592;52.168;21.040;2023-04-03T17:15:55;4.90;;;1.58;;
75912;SDS011;64592;52.168;21.040;2023-04-03T17:20:56;4.72;;;2.42;;
75912;SDS011;64592;52.168;21.040;2023-04-03T17:26:00;3.92;;;1.70;;
75912;SDS011;64592;52.168;21.040;2023-04-03T17:31:02;3.03;;;1.80;;
75912;SDS011;64592;52.168;21.040;2023-04-03T17:36:04;5.40;;;2.10;;
75912;SDS011;64592;52.168;21.040;2023-04-03T17:41:08;2.65;;;1.73;;
75912;SDS011;64592;52.168;21.040;2023-04-03T17:46:10;2.95;;;1.55;;
75912;SDS011;64592;52.168;21.040;2023-04-03T17:51:12;3.60;;;1.75;;
75912;SDS011;64592;52.168;21.040;2023-04-03T17:56:19;2.92;;;1.52;;
75912;SDS011;64592;52.168;21.040;2023-04-03T18:01:24;4.13;;;2.08;;
75912;SDS011;64592;52.168;21.040;2023-04-03T18:06:27;4.07;;;1.70;;
75912;SDS011;64592;52.168;21.040;2023-04-03T18:11:34;5.15;;;2.17;;
75912;SDS011;64592;52.168;21.040;2023-04-03T18:16:36;3.47;;;1.98;;
75912;SDS011;64592;52.168;21.040;2023-04-03T18:21:38;4.75;;;2.03;;
75912;SDS011;64592;52.168;21.040;2023-04-03T18:26:41;4.68;;;1.85;;
75912;SDS011;64592;52.168;21.040;2023-04-03T18:31:47;2.50;;;1.80;;
75912;SDS011;64592;52.168;21.040;2023-04-03T18:36:51;5.45;;;2.08;;
75912;SDS011;64592;52.168;21.040;2023-04-03T18:41:54;2.67;;;1.83;;
75912;SDS011;64592;52.168;21.040;2023-04-03T18:46:59;5.13;;;2.53;;
75912;SDS011;64592;52.168;21.040;2023-04-03T18:52:01;7.10;;;3.03;;
75912;SDS011;64592;52.168;21.040;2023-04-03T18:57:05;3.88;;;2.50;;
75912;SDS011;64592;52.168;21.040;2023-04-03T19:02:07;6.85;;;2.70;;
75912;SDS011;64592;52.168;21.040;2023-04-03T19:07:09;4.63;;;2.88;;
75912;SDS011;64592;52.168;21.040;2023-04-03T19:12:13;4.95;;;2.72;;
75912;SDS011;64592;52.168;21.040;2023-04-03T19:17:15;5.78;;;2.78;;
75912;SDS011;64592;52.168;21.040;2023-04-03T19:22:16;4.13;;;2.25;;
75912;SDS011;64592;52.168;21.040;2023-04-03T19:27:19;4.47;;;2.80;;
75912;SDS011;64592;52.168;21.040;2023-04-03T19:32:21;5.90;;;2.97;;
75912;SDS011;64592;52.168;21.040;2023-04-03T19:37:23;4.97;;;2.95;;
75912;SDS011;64592;52.168;21.040;2023-04-03T19:42:27;6.82;;;3.42;;
75912;SDS011;64592;52.168;21.040;2023-04-03T19:47:30;5.93;;;3.35;;
75912;SDS011;64592;52.168;21.040;2023-04-03T19:52:32;5.30;;;3.33;;
75912;SDS011;64592;52.168;21.040;2023-04-03T19:57:35;7.40;;;3.25;;
75912;SDS011;64592;52.168;21.040;2023-04-03T20:02:37;6.57;;;3.15;;
75912;SDS011;64592;52.168;21.040;2023-04-03T20:07:39;5.57;;;3.90;;
75912;SDS011;64592;52.168;21.040;2023-04-03T20:12:42;5.32;;;3.58;;
75912;SDS011;64592;52.168;21.040;2023-04-03T20:17:43;6.43;;;4.07;;
75912;SDS011;64592;52.168;21.040;2023-04-03T20:22:45;6.47;;;4.05;;
75912;SDS011;64592;52.168;21.040;2023-04-03T20:27:48;5.72;;;3.83;;
75912;SDS011;64592;52.168;21.040;2023-04-03T20:32:52;4.90;;;3.10;;
75912;SDS011;64592;52.168;21.040;2023-04-03T20:37:55;5.47;;;3.90;;
75912;SDS011;64592;52.168;21.040;2023-04-03T20:42:58;4.90;;;3.40;;
75912;SDS011;64592;52.168;21.040;2023-04-03T20:48:00;5.07;;;3.63;;
75912;SDS011;64592;52.168;21.040;2023-04-03T20:53:04;7.00;;;3.88;;
75912;SDS011;64592;52.168;21.040;2023-04-03T20:58:08;8.50;;;4.28;;
75912;SDS011;64592;52.168;21.040;2023-04-03T21:03:10;8.43;;;3.72;;
75912;SDS011;64592;52.168;21.040;2023-04-03T21:19:32;6.78;;;3.25;;
75912;SDS011;64592;52.168;21.040;2023-04-03T21:24:34;6.10;;;3.00;;
75912;SDS011;64592;52.168;21.040;2023-04-03T21:29:36;5.63;;;2.78;;
75912;SDS011;64592;52.168;21.040;2023-04-03T21:34:40;7.18;;;3.05;;
75912;SDS011;64592;52.168;21.040;2023-04-03T21:39:42;4.53;;;2.50;;
75912;SDS011;64592;52.168;21.040;2023-04-03T21:44:44;4.70;;;2.80;;
75912;SDS011;64592;52.168;21.040;2023-04-03T21:49:49;5.03;;;2.88;;
75912;SDS011;64592;52.168;21.040;2023-04-03T21:54:51;5.68;;;3.50;;
75912;SDS011;64592;52.168;21.040;2023-04-03T21:59:53;6.68;;;2.92;;
75912;SDS011;64592;52.168;21.040;2023-04-03T22:04:56;5.43;;;3.28;;
75912;SDS011;64592;52.168;21.040;2023-04-03T22:09:58;7.88;;;3.38;;
75912;SDS011;64592;52.168;21.040;2023-04-03T22:15:00;4.85;;;2.72;;
75912;SDS011;64592;52.168;21.040;2023-04-03T22:20:03;7.40;;;3.10;;
75912;SDS011;64592;52.168;21.040;2023-04-03T22:25:06;4.43;;;3.05;;
75912;SDS011;64592;52.168;21.040;2023-04-03T22:30:09;8.25;;;3.10;;
75912;SDS011;64592;52.168;21.040;2023-04-03T22:35:13;4.15;;;2.28;;
75912;SDS011;64592;52.168;21.040;2023-04-03T22:40:15;5.65;;;2.78;;
75912;SDS011;64592;52.168;21.040;2023-04-03T22:45:16;3.70;;;2.20;;
75912;SDS011;64592;52.168;21.040;2023-04-03T22:50:20;6.25;;;3.05;;
75912;SDS011;64592;52.168;21.040;2023-04-03T22:55:21;10.13;;;3.30;;
75912;SDS011;64592;52.168;21.040;2023-04-03T23:00:24;6.22;;;3.10;;
75912;SDS011;64592;52.168;21.040;2023-04-03T23:05:28;5.22;;;2.42;;
75912;SDS011;64592;52.168;21.040;2023-04-03T23:10:30;4.30;;;2.45;;
75912;SDS011;64592;52.168;21.040;2023-04-03T23:15:31;6.95;;;3.15;;
75912;SDS011;64592;52.168;21.040;2023-04-03T23:20:34;5.30;;;2.53;;
75912;SDS011;64592;52.168;21.040;2023-04-03T23:25:36;6.18;;;2.55;;
75912;SDS011;64592;52.168;21.040;2023-04-03T23:30:38;5.30;;;2.28;;
75912;SDS011;64592;52.168;21.040;2023-04-03T23:35:42;4.70;;;2.80;;
75912;SDS011;64592;52.168;21.040;2023-04-03T23:40:45;4.88;;;2.75;;
75912;SDS011;64592;52.168;21.040;2023-04-03T23:45:47;4.22;;;2.35;;
75912;SDS011;64592;52.168;21.040;2023-04-03T23:50:50;3.35;;;2.38;;
75912;SDS011;64592;52.168;21.040;2023-04-03T23:55:51;5.28;;;2.50;;
